createdAt,value
2022-10-28T00:00:12.539Z,45.29
2022-10-28T00:00:43.939Z,45.33
2022-10-28T00:01:15.468Z,45.16
2022-10-28T00:01:46.981Z,45.53
2022-10-28T00:02:18.474Z,44.98
2022-10-28T00:02:49.980Z,45.21
2022-10-28T00:03:21.431Z,45.42
2022-10-28T00:03:52.821Z,45.46
2022-10-28T00:04:24.274Z,44.91
2022-10-28T00:04:55.717Z,45.39
2022-10-28T00:05:27.103Z,45.22
2022-10-28T00:05:58.491Z,45.30
2022-10-28T00:06:30.115Z,45.38
2022-10-28T00:07:01.604Z,44.95
2022-10-28T00:07:33.012Z,45.35
2022-10-28T00:08:04.411Z,45.15
2022-10-28T00:08:35.826Z,45.32
2022-10-28T00:09:09.789Z,45.61
2022-10-28T00:09:43.627Z,45.16
2022-10-28T00:10:15.012Z,45.46
2022-10-28T00:10:46.406Z,45.45
2022-10-28T00:11:17.856Z,45.48
2022-10-28T00:11:49.269Z,44.96
2022-10-28T00:12:20.671Z,45.10
2022-10-28T00:12:52.076Z,45.48
2022-10-28T00:13:23.485Z,45.26
2022-10-28T00:13:54.879Z,45.33
2022-10-28T00:14:26.270Z,45.44
2022-10-28T00:14:57.692Z,44.95
2022-10-28T00:15:29.082Z,44.74
2022-10-28T00:16:00.497Z,45.32
2022-10-28T00:16:31.896Z,45.25
2022-10-28T00:17:03.478Z,45.42
2022-10-28T00:17:34.869Z,45.20
2022-10-28T00:18:06.274Z,45.68
2022-10-28T00:18:37.657Z,45.51
2022-10-28T00:19:09.047Z,45.23
2022-10-28T00:19:40.434Z,45.62
2022-10-28T00:20:11.817Z,45.47
2022-10-28T00:20:43.200Z,45.41
2022-10-28T00:21:14.575Z,45.52
2022-10-28T00:21:45.961Z,45.28
2022-10-28T00:22:17.490Z,45.62
2022-10-28T00:22:48.878Z,45.06
2022-10-28T00:23:20.271Z,45.25
2022-10-28T00:23:51.672Z,45.53
2022-10-28T00:24:23.096Z,45.19
2022-10-28T00:24:54.488Z,45.50
2022-10-28T00:25:25.891Z,45.34
2022-10-28T00:25:57.272Z,45.11
2022-10-28T00:26:28.916Z,45.17
2022-10-28T00:27:00.304Z,45.22
2022-10-28T00:27:31.854Z,45.35
2022-10-28T00:28:03.249Z,45.32
2022-10-28T00:28:34.649Z,45.30
2022-10-28T00:29:06.032Z,45.08
2022-10-28T00:29:37.434Z,45.53
2022-10-28T00:30:08.826Z,45.45
2022-10-28T00:30:40.217Z,45.22
2022-10-28T00:31:11.611Z,45.11
2022-10-28T00:31:43.024Z,45.03
2022-10-28T00:32:14.417Z,45.02
2022-10-28T00:32:45.865Z,45.39
2022-10-28T00:33:17.251Z,45.29
2022-10-28T00:33:48.644Z,45.38
2022-10-28T00:34:20.036Z,45.15
2022-10-28T00:34:51.498Z,44.96
2022-10-28T00:35:22.913Z,45.42
2022-10-28T00:35:54.320Z,45.20
2022-10-28T00:36:25.708Z,45.29
2022-10-28T00:36:57.114Z,45.61
2022-10-28T00:37:28.496Z,45.47
2022-10-28T00:38:00.021Z,45.05
2022-10-28T00:38:31.414Z,45.40
2022-10-28T00:39:02.796Z,45.36
2022-10-28T00:39:34.194Z,45.04
2022-10-28T00:40:05.601Z,45.24
2022-10-28T00:40:36.996Z,45.63
2022-10-28T00:41:08.404Z,44.97
2022-10-28T00:41:39.792Z,45.55
2022-10-28T00:42:11.182Z,45.53
2022-10-28T00:42:42.573Z,45.01
2022-10-28T00:43:14.076Z,45.37
2022-10-28T00:43:45.480Z,45.00
2022-10-28T00:44:16.866Z,45.49
2022-10-28T00:44:48.251Z,45.16
2022-10-28T00:45:19.638Z,45.50
2022-10-28T00:45:51.043Z,45.28
2022-10-28T00:46:22.429Z,45.11
2022-10-28T00:46:53.832Z,45.24
2022-10-28T00:47:25.216Z,45.21
2022-10-28T00:47:56.851Z,45.21
2022-10-28T00:48:28.460Z,45.24
2022-10-28T00:48:59.847Z,45.17
2022-10-28T00:49:31.251Z,45.40
2022-10-28T00:50:02.663Z,45.42
2022-10-28T00:50:34.056Z,45.28
2022-10-28T00:51:05.497Z,45.27
2022-10-28T00:51:36.881Z,45.41
2022-10-28T00:52:08.286Z,45.20
2022-10-28T00:52:39.682Z,45.52
2022-10-28T00:53:11.073Z,45.57
2022-10-28T00:53:42.565Z,45.26
2022-10-28T00:54:13.947Z,45.35
2022-10-28T00:54:45.367Z,45.17
2022-10-28T00:55:16.760Z,45.42
2022-10-28T00:55:48.146Z,45.27
2022-10-28T00:56:19.590Z,45.69
2022-10-28T00:56:51.020Z,45.29
2022-10-28T00:57:22.424Z,45.02
2022-10-28T00:57:53.924Z,44.99
2022-10-28T00:58:25.596Z,45.52
2022-10-28T00:58:57.014Z,45.50
2022-10-28T00:59:28.429Z,45.39
2022-10-28T00:59:59.833Z,45.50
2022-10-28T01:00:31.333Z,45.66
2022-10-28T01:01:02.733Z,45.03
2022-10-28T01:01:34.276Z,45.62
2022-10-28T01:02:05.916Z,45.25
2022-10-28T01:02:37.441Z,45.04
2022-10-28T01:03:08.852Z,45.45
2022-10-28T01:03:40.237Z,45.36
2022-10-28T01:04:11.810Z,45.49
2022-10-28T01:04:43.204Z,45.00
2022-10-28T01:05:14.614Z,45.02
2022-10-28T01:05:46.003Z,45.77
2022-10-28T01:06:17.388Z,45.37
2022-10-28T01:06:48.797Z,45.45
2022-10-28T01:07:20.200Z,45.50
2022-10-28T01:07:51.886Z,45.30
2022-10-28T01:08:23.477Z,45.34
2022-10-28T01:08:57.592Z,45.10
2022-10-28T01:09:31.503Z,45.43
2022-10-28T01:10:02.895Z,45.34
2022-10-28T01:10:34.280Z,45.64
2022-10-28T01:11:05.682Z,45.36
2022-10-28T01:11:37.092Z,45.49
2022-10-28T01:12:08.475Z,45.21
2022-10-28T01:12:39.876Z,44.95
2022-10-28T01:13:11.260Z,45.22
2022-10-28T01:13:42.652Z,45.59
2022-10-28T01:14:14.051Z,45.26
2022-10-28T01:14:45.459Z,45.00
2022-10-28T01:15:16.847Z,45.57
2022-10-28T01:15:48.243Z,45.43
2022-10-28T01:16:19.628Z,45.35
2022-10-28T01:16:51.012Z,45.34
2022-10-28T01:17:22.403Z,45.65
2022-10-28T01:17:53.797Z,45.28
2022-10-28T01:18:25.193Z,45.46
2022-10-28T01:18:56.575Z,45.61
2022-10-28T01:19:28.029Z,45.30
2022-10-28T01:19:59.515Z,45.00
2022-10-28T01:20:31.751Z,45.27
2022-10-28T01:21:05.231Z,45.50
2022-10-28T01:21:36.704Z,45.38
2022-10-28T01:22:08.110Z,45.19
2022-10-28T01:22:39.500Z,45.27
2022-10-28T01:23:10.890Z,45.35
2022-10-28T01:23:42.294Z,45.48
2022-10-28T01:24:13.686Z,45.38
2022-10-28T01:24:45.074Z,45.21
2022-10-28T01:25:16.543Z,45.88
2022-10-28T01:25:47.926Z,45.45
2022-10-28T01:26:19.332Z,45.30
2022-10-28T01:26:50.717Z,45.36
2022-10-28T01:27:22.125Z,45.25
2022-10-28T01:27:53.524Z,45.17
2022-10-28T01:28:24.907Z,45.23
2022-10-28T01:28:56.296Z,45.03
2022-10-28T01:29:28.029Z,45.70
2022-10-28T01:29:59.421Z,45.63
2022-10-28T01:30:30.917Z,45.24
2022-10-28T01:31:02.303Z,45.33
2022-10-28T01:31:33.702Z,45.62
2022-10-28T01:32:05.131Z,45.04
2022-10-28T01:32:36.541Z,45.33
2022-10-28T01:33:07.925Z,44.96
2022-10-28T01:33:39.313Z,45.47
2022-10-28T01:34:10.710Z,44.95
2022-10-28T01:34:42.125Z,45.23
2022-10-28T01:35:13.504Z,45.23
2022-10-28T01:35:44.947Z,45.25
2022-10-28T01:36:16.336Z,45.22
2022-10-28T01:36:47.721Z,45.40
2022-10-28T01:37:19.109Z,45.21
2022-10-28T01:37:50.660Z,45.02
2022-10-28T01:38:22.258Z,45.19
2022-10-28T01:38:53.652Z,45.72
2022-10-28T01:39:25.056Z,45.44
2022-10-28T01:39:56.439Z,45.22
2022-10-28T01:40:27.840Z,45.67
2022-10-28T01:40:59.341Z,45.13
2022-10-28T01:41:30.723Z,45.43
2022-10-28T01:42:02.118Z,45.72
2022-10-28T01:42:33.517Z,45.50
2022-10-28T01:43:04.927Z,45.13
2022-10-28T01:43:36.311Z,45.37
2022-10-28T01:44:07.708Z,45.37
2022-10-28T01:44:39.094Z,45.35
2022-10-28T01:45:10.482Z,45.32
2022-10-28T01:45:41.868Z,45.63
2022-10-28T01:46:13.308Z,45.55
2022-10-28T01:46:44.701Z,44.88
2022-10-28T01:47:16.106Z,45.53
2022-10-28T01:47:47.497Z,45.37
2022-10-28T01:48:18.909Z,45.26
2022-10-28T01:48:50.332Z,45.62
2022-10-28T01:49:21.732Z,45.45
2022-10-28T01:49:53.124Z,45.42
2022-10-28T01:50:24.512Z,45.29
2022-10-28T01:50:55.908Z,45.50
2022-10-28T01:51:27.355Z,45.62
2022-10-28T01:51:58.744Z,45.13
2022-10-28T01:52:30.139Z,45.10
2022-10-28T01:53:01.540Z,45.42
2022-10-28T01:53:32.925Z,45.40
2022-10-28T01:54:04.306Z,45.29
2022-10-28T01:54:35.717Z,45.65
2022-10-28T01:55:07.105Z,45.65
2022-10-28T01:55:38.495Z,45.60
2022-10-28T01:56:09.913Z,45.34
2022-10-28T01:56:41.421Z,45.41
2022-10-28T01:57:12.805Z,45.30
2022-10-28T01:57:44.192Z,45.44
2022-10-28T01:58:15.595Z,45.47
2022-10-28T01:58:46.978Z,45.58
2022-10-28T01:59:18.368Z,45.51
2022-10-28T01:59:49.750Z,45.29
2022-10-28T02:00:21.145Z,45.94
2022-10-28T02:00:52.606Z,45.54
2022-10-28T02:01:24.148Z,45.85
2022-10-28T02:01:55.741Z,45.32
2022-10-28T02:02:27.247Z,45.60
2022-10-28T02:02:58.656Z,45.23
2022-10-28T02:03:30.043Z,45.44
2022-10-28T02:04:01.442Z,45.24
2022-10-28T02:04:32.823Z,45.70
2022-10-28T02:05:04.234Z,45.32
2022-10-28T02:05:35.647Z,45.43
2022-10-28T02:06:07.029Z,45.09
2022-10-28T02:06:38.433Z,45.42
2022-10-28T02:07:09.859Z,45.13
2022-10-28T02:07:41.245Z,45.43
2022-10-28T02:08:12.639Z,45.46
2022-10-28T02:08:44.029Z,45.09
2022-10-28T02:09:15.418Z,45.28
2022-10-28T02:09:46.807Z,45.71
2022-10-28T02:10:18.196Z,45.33
2022-10-28T02:10:49.644Z,45.48
2022-10-28T02:11:21.034Z,45.22
2022-10-28T02:11:52.444Z,45.65
2022-10-28T02:12:23.903Z,45.34
2022-10-28T02:12:55.676Z,45.14
2022-10-28T02:13:27.267Z,45.55
2022-10-28T02:13:58.658Z,45.53
2022-10-28T02:14:30.044Z,45.49
2022-10-28T02:15:01.514Z,45.35
2022-10-28T02:15:33.005Z,45.23
2022-10-28T02:16:04.413Z,45.24
2022-10-28T02:16:35.802Z,45.19
2022-10-28T02:17:07.198Z,45.51
2022-10-28T02:17:38.633Z,45.32
2022-10-28T02:18:10.023Z,44.93
2022-10-28T02:18:41.411Z,45.33
2022-10-28T02:19:12.802Z,45.38
2022-10-28T02:19:44.203Z,45.51
2022-10-28T02:20:15.599Z,45.27
2022-10-28T02:20:46.980Z,45.72
2022-10-28T02:21:18.361Z,45.68
2022-10-28T02:21:49.765Z,45.83
2022-10-28T02:22:21.149Z,45.16
2022-10-28T02:22:52.663Z,45.37
2022-10-28T02:23:24.063Z,45.55
2022-10-28T02:23:55.451Z,45.48
2022-10-28T02:24:26.832Z,45.53
2022-10-28T02:24:58.235Z,45.46
2022-10-28T02:25:29.615Z,45.40
2022-10-28T02:26:01.000Z,45.29
2022-10-28T02:26:32.422Z,45.44
2022-10-28T02:27:03.800Z,45.27
2022-10-28T02:27:35.190Z,45.33
2022-10-28T02:28:06.801Z,45.55
2022-10-28T02:28:38.270Z,45.27
2022-10-28T02:29:09.671Z,45.46
2022-10-28T02:29:41.059Z,45.47
2022-10-28T02:30:12.471Z,45.55
2022-10-28T02:30:43.849Z,45.59
2022-10-28T02:31:15.239Z,45.59
2022-10-28T02:31:46.645Z,45.32
2022-10-28T02:32:18.032Z,45.66
2022-10-28T02:32:49.412Z,45.54
2022-10-28T02:33:20.862Z,45.58
2022-10-28T02:33:52.244Z,45.38
2022-10-28T02:34:23.635Z,45.46
2022-10-28T02:34:55.046Z,45.39
2022-10-28T02:35:26.433Z,45.58
2022-10-28T02:35:57.814Z,45.36
2022-10-28T02:36:29.200Z,45.37
2022-10-28T02:37:00.608Z,45.40
2022-10-28T02:37:32.000Z,45.42
2022-10-28T02:38:03.411Z,45.22
2022-10-28T02:38:34.812Z,45.57
2022-10-28T02:39:06.202Z,45.72
2022-10-28T02:39:37.591Z,46.10
2022-10-28T02:40:08.992Z,45.39
2022-10-28T02:40:40.410Z,45.28
2022-10-28T02:41:11.853Z,45.52
2022-10-28T02:41:43.269Z,45.92
2022-10-28T02:42:14.653Z,45.13
2022-10-28T02:42:46.042Z,45.68
2022-10-28T02:43:17.480Z,45.42
2022-10-28T02:43:48.984Z,45.53
2022-10-28T02:44:20.377Z,45.45
2022-10-28T02:44:51.783Z,45.66
2022-10-28T02:45:23.179Z,45.65
2022-10-28T02:45:54.566Z,45.45
2022-10-28T02:46:25.953Z,45.56
2022-10-28T02:46:57.376Z,45.82
2022-10-28T02:47:28.774Z,45.77
2022-10-28T02:48:00.164Z,45.77
2022-10-28T02:48:31.556Z,45.31
2022-10-28T02:49:03.081Z,45.84
2022-10-28T02:49:34.468Z,45.45
2022-10-28T02:50:05.868Z,45.88
2022-10-28T02:50:37.255Z,45.38
2022-10-28T02:51:08.639Z,45.45
2022-10-28T02:51:40.029Z,44.94
2022-10-28T02:52:11.412Z,45.72
2022-10-28T02:52:42.795Z,45.46
2022-10-28T02:53:14.186Z,45.87
2022-10-28T02:53:45.684Z,45.51
2022-10-28T02:54:17.065Z,45.23
2022-10-28T02:54:48.448Z,45.56
2022-10-28T02:55:19.834Z,45.87
2022-10-28T02:55:51.216Z,45.24
2022-10-28T02:56:22.602Z,45.75
2022-10-28T02:56:54.025Z,45.58
2022-10-28T02:57:25.460Z,45.70
2022-10-28T02:57:56.848Z,45.78
2022-10-28T02:58:28.235Z,45.53
2022-10-28T02:58:59.722Z,45.94
2022-10-28T02:59:31.122Z,45.65
2022-10-28T03:00:02.509Z,45.76
2022-10-28T03:00:33.899Z,45.54
2022-10-28T03:01:05.371Z,45.63
2022-10-28T03:01:36.949Z,45.97
2022-10-28T03:02:08.469Z,45.56
2022-10-28T03:02:39.922Z,45.21
2022-10-28T03:03:11.309Z,45.80
2022-10-28T03:03:42.700Z,45.31
2022-10-28T03:04:14.183Z,45.59
2022-10-28T03:04:45.589Z,45.49
2022-10-28T03:05:16.981Z,45.65
2022-10-28T03:05:48.364Z,46.04
2022-10-28T03:06:19.823Z,45.87
2022-10-28T03:06:51.247Z,45.63
2022-10-28T03:07:22.697Z,45.48
2022-10-28T03:07:54.519Z,45.73
2022-10-28T03:08:26.111Z,45.71
2022-10-28T03:08:57.506Z,45.94
2022-10-28T03:09:28.972Z,45.45
2022-10-28T03:10:00.359Z,45.82
2022-10-28T03:10:31.753Z,45.65
2022-10-28T03:11:03.164Z,45.67
2022-10-28T03:11:34.561Z,45.55
2022-10-28T03:12:05.969Z,45.81
2022-10-28T03:12:37.365Z,45.60
2022-10-28T03:13:08.756Z,45.61
2022-10-28T03:13:40.195Z,45.43
2022-10-28T03:14:14.570Z,45.68
2022-10-28T03:14:46.877Z,45.91
2022-10-28T03:15:18.260Z,46.10
2022-10-28T03:15:49.649Z,45.84
2022-10-28T03:16:21.053Z,45.68
2022-10-28T03:16:52.524Z,45.22
2022-10-28T03:17:23.904Z,45.69
2022-10-28T03:17:55.569Z,45.49
2022-10-28T03:18:27.247Z,45.55
2022-10-28T03:18:58.679Z,45.68
2022-10-28T03:19:30.257Z,45.67
2022-10-28T03:20:01.665Z,45.50
2022-10-28T03:20:33.054Z,46.00
2022-10-28T03:21:04.445Z,45.69
2022-10-28T03:21:35.833Z,45.53
2022-10-28T03:22:07.225Z,45.72
2022-10-28T03:22:38.766Z,45.54
2022-10-28T03:23:10.169Z,45.52
2022-10-28T03:23:41.564Z,45.57
2022-10-28T03:24:12.945Z,45.81
2022-10-28T03:24:44.428Z,45.59
2022-10-28T03:25:15.813Z,45.93
2022-10-28T03:25:47.211Z,45.57
2022-10-28T03:26:18.617Z,45.65
2022-10-28T03:26:50.016Z,45.51
2022-10-28T03:27:21.400Z,45.81
2022-10-28T03:27:52.793Z,45.72
2022-10-28T03:28:24.186Z,45.54
2022-10-28T03:28:55.592Z,45.76
2022-10-28T03:29:26.996Z,45.55
2022-10-28T03:29:58.477Z,45.67
2022-10-28T03:30:29.859Z,45.10
2022-10-28T03:31:01.248Z,45.51
2022-10-28T03:31:32.652Z,45.85
2022-10-28T03:32:04.067Z,45.66
2022-10-28T03:32:35.467Z,45.85
2022-10-28T03:33:06.847Z,45.91
2022-10-28T03:33:38.241Z,45.96
2022-10-28T03:34:09.649Z,45.49
2022-10-28T03:34:41.037Z,45.57
2022-10-28T03:35:12.463Z,45.45
2022-10-28T03:35:43.843Z,45.48
2022-10-28T03:36:15.234Z,45.67
2022-10-28T03:36:46.630Z,45.50
2022-10-28T03:37:18.010Z,45.50
2022-10-28T03:37:49.406Z,45.90
2022-10-28T03:38:20.797Z,45.66
2022-10-28T03:38:52.213Z,45.95
2022-10-28T03:39:23.597Z,45.35
2022-10-28T03:39:54.979Z,45.62
2022-10-28T03:40:26.512Z,45.46
2022-10-28T03:40:57.925Z,45.38
2022-10-28T03:41:29.308Z,46.00
2022-10-28T03:42:00.688Z,45.38
2022-10-28T03:42:32.066Z,45.74
2022-10-28T03:43:03.454Z,45.46
2022-10-28T03:43:34.874Z,45.96
2022-10-28T03:44:06.256Z,45.64
2022-10-28T03:44:37.642Z,45.51
2022-10-28T03:45:09.027Z,45.62
2022-10-28T03:45:40.425Z,45.57
2022-10-28T03:46:11.817Z,46.02
2022-10-28T03:46:43.208Z,45.79
2022-10-28T03:47:14.599Z,45.37
2022-10-28T03:47:45.997Z,45.65
2022-10-28T03:48:17.387Z,45.33
2022-10-28T03:48:48.776Z,46.04
2022-10-28T03:49:20.185Z,45.86
2022-10-28T03:49:51.592Z,45.59
2022-10-28T03:50:22.981Z,45.78
2022-10-28T03:50:54.518Z,45.48
2022-10-28T03:51:25.924Z,45.74
2022-10-28T03:51:57.316Z,45.82
2022-10-28T03:52:28.712Z,45.95
2022-10-28T03:53:00.108Z,45.66
2022-10-28T03:53:31.680Z,45.53
2022-10-28T03:54:03.098Z,45.88
2022-10-28T03:54:34.505Z,45.81
2022-10-28T03:55:05.892Z,45.94
2022-10-28T03:55:37.280Z,45.69
2022-10-28T03:56:08.776Z,45.89
2022-10-28T03:56:40.165Z,45.39
2022-10-28T03:57:11.580Z,46.26
2022-10-28T03:57:42.961Z,45.50
2022-10-28T03:58:14.364Z,45.72
2022-10-28T03:58:45.824Z,45.92
2022-10-28T03:59:19.396Z,45.48
2022-10-28T03:59:51.829Z,45.48
2022-10-28T04:00:23.217Z,45.75
2022-10-28T04:00:54.640Z,45.76
2022-10-28T04:01:26.247Z,45.67
2022-10-28T04:01:57.845Z,45.55
2022-10-28T04:02:29.433Z,45.66
2022-10-28T04:03:00.879Z,45.52
2022-10-28T04:03:32.268Z,45.92
2022-10-28T04:04:03.650Z,46.07
2022-10-28T04:04:35.054Z,45.71
2022-10-28T04:05:06.448Z,45.53
2022-10-28T04:05:37.838Z,45.94
2022-10-28T04:06:09.228Z,45.62
2022-10-28T04:06:40.680Z,45.66
2022-10-28T04:07:12.072Z,45.53
2022-10-28T04:07:43.456Z,45.53
2022-10-28T04:08:14.865Z,46.13
2022-10-28T04:08:46.257Z,46.14
2022-10-28T04:09:17.637Z,45.52
2022-10-28T04:09:49.036Z,46.02
2022-10-28T04:10:20.421Z,45.66
2022-10-28T04:10:51.806Z,46.08
2022-10-28T04:11:23.209Z,45.77
2022-10-28T04:11:54.893Z,45.51
2022-10-28T04:12:26.342Z,46.25
2022-10-28T04:12:57.731Z,45.61
2022-10-28T04:13:29.132Z,45.52
2022-10-28T04:14:00.528Z,45.78
2022-10-28T04:14:31.958Z,45.38
2022-10-28T04:15:03.346Z,45.70
2022-10-28T04:15:34.737Z,45.82
2022-10-28T04:16:06.121Z,45.46
2022-10-28T04:16:37.507Z,45.95
2022-10-28T04:17:08.956Z,45.91
2022-10-28T04:17:40.364Z,45.93
2022-10-28T04:18:11.767Z,45.84
2022-10-28T04:18:43.175Z,45.78
2022-10-28T04:19:14.584Z,45.80
2022-10-28T04:19:45.989Z,45.86
2022-10-28T04:20:17.372Z,45.60
2022-10-28T04:20:48.761Z,45.75
2022-10-28T04:21:20.178Z,45.62
2022-10-28T04:21:51.565Z,45.67
2022-10-28T04:22:23.178Z,45.72
2022-10-28T04:22:57.009Z,45.52
2022-10-28T04:23:28.765Z,45.09
2022-10-28T04:24:00.162Z,45.56
2022-10-28T04:24:31.563Z,45.82
2022-10-28T04:25:02.975Z,45.71
2022-10-28T04:25:34.385Z,45.80
2022-10-28T04:26:05.770Z,45.85
2022-10-28T04:26:37.156Z,45.91
2022-10-28T04:27:08.555Z,45.75
2022-10-28T04:27:40.016Z,46.07
2022-10-28T04:28:11.412Z,45.60
2022-10-28T04:28:42.826Z,45.51
2022-10-28T04:29:14.222Z,45.66
2022-10-28T04:29:45.609Z,45.65
2022-10-28T04:30:16.998Z,46.06
2022-10-28T04:30:48.382Z,45.67
2022-10-28T04:31:19.819Z,45.64
2022-10-28T04:31:52.328Z,45.57
2022-10-28T04:32:23.921Z,45.32
2022-10-28T04:32:55.338Z,46.00
2022-10-28T04:33:26.749Z,46.00
2022-10-28T04:33:58.142Z,45.47
2022-10-28T04:34:29.530Z,45.78
2022-10-28T04:35:00.920Z,45.37
2022-10-28T04:35:32.333Z,45.73
2022-10-28T04:36:03.735Z,45.74
2022-10-28T04:36:35.145Z,45.83
2022-10-28T04:37:06.540Z,45.77
2022-10-28T04:37:37.948Z,45.47
2022-10-28T04:38:09.453Z,45.57
2022-10-28T04:38:40.842Z,45.99
2022-10-28T04:39:12.233Z,45.51
2022-10-28T04:39:43.624Z,45.98
2022-10-28T04:40:15.016Z,45.50
2022-10-28T04:40:46.405Z,46.15
2022-10-28T04:41:17.793Z,45.70
2022-10-28T04:41:49.197Z,45.92
2022-10-28T04:42:20.602Z,45.33
2022-10-28T04:42:52.380Z,45.28
2022-10-28T04:43:24.116Z,45.48
2022-10-28T04:43:55.464Z,45.54
2022-10-28T04:44:26.848Z,45.65
2022-10-28T04:44:58.236Z,45.83
2022-10-28T04:45:29.624Z,45.61
2022-10-28T04:46:01.026Z,45.37
2022-10-28T04:46:32.413Z,45.78
2022-10-28T04:47:03.820Z,45.59
2022-10-28T04:47:35.223Z,45.34
2022-10-28T04:48:06.613Z,45.99
2022-10-28T04:48:38.096Z,45.88
2022-10-28T04:49:09.498Z,45.83
2022-10-28T04:49:40.891Z,45.58
2022-10-28T04:50:12.291Z,45.50
2022-10-28T04:50:43.688Z,45.79
2022-10-28T04:51:15.080Z,45.84
2022-10-28T04:52:18.763Z,46.03
2022-10-28T04:52:50.177Z,45.57
2022-10-28T04:53:21.600Z,45.64
2022-10-28T04:53:53.079Z,45.71
2022-10-28T04:54:24.460Z,45.97
2022-10-28T04:54:55.849Z,45.86
2022-10-28T04:55:27.253Z,46.07
2022-10-28T04:55:58.635Z,45.83
2022-10-28T04:56:30.083Z,45.82
2022-10-28T04:57:01.469Z,45.67
2022-10-28T04:57:32.886Z,45.74
2022-10-28T04:58:04.272Z,45.95
2022-10-28T04:58:35.655Z,45.36
2022-10-28T04:59:07.134Z,45.75
2022-10-28T04:59:38.511Z,45.98
2022-10-28T05:00:09.906Z,45.72
2022-10-28T05:00:41.302Z,45.56
2022-10-28T05:01:12.779Z,46.30
2022-10-28T05:01:44.378Z,46.00
2022-10-28T05:02:16.007Z,46.25
2022-10-28T05:02:47.480Z,45.77
2022-10-28T05:03:18.875Z,45.20
2022-10-28T05:03:50.284Z,45.65
2022-10-28T05:04:21.801Z,45.84
2022-10-28T05:04:53.206Z,45.84
2022-10-28T05:05:24.610Z,46.10
2022-10-28T05:05:55.997Z,45.91
2022-10-28T05:06:27.569Z,46.09
2022-10-28T05:06:58.963Z,45.72
2022-10-28T05:07:30.351Z,45.72
2022-10-28T05:08:01.744Z,46.03
2022-10-28T05:08:33.129Z,46.12
2022-10-28T05:09:04.541Z,46.16
2022-10-28T05:09:36.058Z,45.80
2022-10-28T05:10:07.448Z,45.83
2022-10-28T05:10:38.853Z,45.94
2022-10-28T05:11:10.237Z,46.04
2022-10-28T05:11:41.647Z,45.78
2022-10-28T05:12:13.059Z,45.65
2022-10-28T05:12:44.449Z,45.65
2022-10-28T05:13:15.833Z,46.00
2022-10-28T05:13:47.222Z,45.76
2022-10-28T05:14:18.633Z,45.80
2022-10-28T05:14:52.477Z,46.19
2022-10-28T05:15:24.653Z,45.54
2022-10-28T05:15:56.049Z,45.74
2022-10-28T05:16:27.443Z,45.92
2022-10-28T05:16:58.857Z,46.13
2022-10-28T05:17:30.245Z,45.93
2022-10-28T05:18:01.652Z,45.32
2022-10-28T05:18:33.078Z,46.06
2022-10-28T05:19:04.459Z,45.84
2022-10-28T05:19:35.844Z,45.67
2022-10-28T05:20:07.382Z,45.84
2022-10-28T05:20:38.831Z,46.14
2022-10-28T05:21:10.213Z,45.65
2022-10-28T05:21:41.615Z,46.07
2022-10-28T05:22:13.014Z,45.82
2022-10-28T05:22:44.405Z,45.90
2022-10-28T05:23:15.789Z,46.21
2022-10-28T05:23:47.177Z,46.00
2022-10-28T05:24:18.572Z,45.92
2022-10-28T05:24:49.960Z,46.14
2022-10-28T05:25:21.413Z,45.97
2022-10-28T05:25:52.813Z,46.12
2022-10-28T05:26:24.201Z,45.77
2022-10-28T05:26:55.593Z,45.67
2022-10-28T05:27:27.026Z,45.91
2022-10-28T05:27:58.418Z,46.02
2022-10-28T05:28:29.804Z,45.61
2022-10-28T05:29:01.191Z,45.92
2022-10-28T05:29:33.511Z,45.83
2022-10-28T05:30:04.990Z,45.81
2022-10-28T05:30:36.506Z,45.66
2022-10-28T05:31:07.891Z,45.91
2022-10-28T05:31:39.278Z,46.41
2022-10-28T05:32:10.680Z,45.85
2022-10-28T05:32:42.089Z,46.45
2022-10-28T05:33:13.487Z,46.24
2022-10-28T05:33:44.893Z,45.94
2022-10-28T05:34:16.287Z,45.88
2022-10-28T05:34:47.673Z,46.26
2022-10-28T05:35:19.069Z,45.92
2022-10-28T05:35:50.491Z,46.08
2022-10-28T05:36:21.888Z,45.93
2022-10-28T05:36:53.300Z,45.61
2022-10-28T05:37:24.700Z,46.13
2022-10-28T05:37:56.090Z,45.92
2022-10-28T05:38:27.473Z,46.16
2022-10-28T05:38:58.861Z,45.77
2022-10-28T05:39:30.263Z,46.12
2022-10-28T05:40:01.691Z,45.78
2022-10-28T05:40:33.092Z,45.74
2022-10-28T05:41:04.620Z,45.97
2022-10-28T05:41:38.736Z,45.76
2022-10-28T05:42:10.345Z,45.84
2022-10-28T05:42:41.737Z,46.12
2022-10-28T05:43:13.155Z,46.04
2022-10-28T05:43:44.566Z,46.21
2022-10-28T05:44:15.962Z,45.64
2022-10-28T05:44:47.350Z,46.00
2022-10-28T05:45:18.815Z,46.07
2022-10-28T05:45:50.254Z,45.89
2022-10-28T05:46:21.742Z,45.78
2022-10-28T05:46:53.132Z,46.28
2022-10-28T05:47:24.548Z,45.78
2022-10-28T05:47:56.136Z,45.94
2022-10-28T05:48:27.700Z,45.95
2022-10-28T05:48:59.089Z,45.93
2022-10-28T05:49:30.500Z,46.18
2022-10-28T05:50:01.887Z,45.95
2022-10-28T05:50:33.272Z,45.97
2022-10-28T05:51:04.669Z,45.78
2022-10-28T05:51:36.124Z,46.26
2022-10-28T05:52:07.512Z,46.55
2022-10-28T05:52:38.902Z,46.01
2022-10-28T05:53:10.298Z,45.87
2022-10-28T05:53:41.706Z,45.93
2022-10-28T05:54:13.120Z,46.04
2022-10-28T05:54:44.521Z,45.63
2022-10-28T05:55:15.909Z,46.14
2022-10-28T05:55:47.967Z,46.23
2022-10-28T05:56:19.525Z,46.30
2022-10-28T05:56:51.012Z,46.11
2022-10-28T05:57:22.424Z,45.79
2022-10-28T05:57:53.988Z,45.98
2022-10-28T05:58:25.485Z,45.87
2022-10-28T05:58:56.875Z,45.98
2022-10-28T05:59:28.264Z,45.99
2022-10-28T05:59:59.658Z,46.00
2022-10-28T06:00:31.049Z,45.84
2022-10-28T06:01:02.435Z,45.91
2022-10-28T06:01:33.909Z,45.76
2022-10-28T06:02:05.455Z,45.99
2022-10-28T06:02:36.841Z,46.39
2022-10-28T06:03:08.243Z,46.24
2022-10-28T06:03:39.679Z,46.24
2022-10-28T06:04:11.177Z,46.14
2022-10-28T06:04:42.613Z,45.62
2022-10-28T06:05:14.009Z,45.89
2022-10-28T06:05:45.392Z,45.90
2022-10-28T06:06:16.828Z,46.24
2022-10-28T06:06:48.230Z,45.99
2022-10-28T06:07:19.749Z,46.63
2022-10-28T06:07:51.139Z,46.07
2022-10-28T06:08:24.038Z,46.21
2022-10-28T06:08:55.438Z,46.21
2022-10-28T06:09:26.836Z,46.70
2022-10-28T06:09:58.440Z,46.21
2022-10-28T06:10:29.852Z,45.87
2022-10-28T06:10:59.738Z,46.39
2022-10-28T06:11:31.156Z,46.38
2022-10-28T06:12:02.685Z,46.59
2022-10-28T06:13:10.499Z,46.15
2022-10-28T06:13:41.889Z,46.18
2022-10-28T06:14:14.550Z,46.08
2022-10-28T06:14:45.941Z,46.07
2022-10-28T06:15:17.333Z,46.30
2022-10-28T06:15:48.764Z,46.22
2022-10-28T06:16:22.219Z,46.48
2022-10-28T06:16:53.631Z,46.20
2022-10-28T06:17:25.148Z,46.20
2022-10-28T06:17:56.799Z,46.29
2022-10-28T06:18:28.240Z,46.13
2022-10-28T06:18:59.637Z,46.77
2022-10-28T06:19:31.027Z,46.40
2022-10-28T06:20:02.446Z,46.60
2022-10-28T06:20:33.841Z,46.50
2022-10-28T06:21:05.324Z,46.37
2022-10-28T06:21:36.727Z,46.64
2022-10-28T06:22:08.141Z,46.47
2022-10-28T06:22:39.534Z,46.75
2022-10-28T06:23:11.359Z,46.73
2022-10-28T06:23:42.828Z,46.28
2022-10-28T06:24:14.721Z,46.57
2022-10-28T06:24:46.256Z,46.73
2022-10-28T06:25:18.436Z,46.29
2022-10-28T06:25:50.599Z,46.19
2022-10-28T06:26:22.666Z,46.34
2022-10-28T06:26:54.101Z,46.53
2022-10-28T06:27:25.489Z,46.97
2022-10-28T06:27:56.875Z,46.17
2022-10-28T06:28:28.379Z,46.71
2022-10-28T06:28:59.771Z,46.54
2022-10-28T06:29:31.547Z,46.84
2022-10-28T06:30:03.056Z,46.62
2022-10-28T06:30:34.453Z,46.49
2022-10-28T06:31:05.883Z,46.93
2022-10-28T06:31:37.279Z,46.53
2022-10-28T06:32:08.680Z,46.18
2022-10-28T06:32:40.326Z,46.79
2022-10-28T06:33:11.720Z,46.93
2022-10-28T06:33:43.269Z,46.65
2022-10-28T06:34:14.688Z,46.77
2022-10-28T06:34:46.081Z,47.22
2022-10-28T06:35:17.495Z,47.26
2022-10-28T06:35:48.910Z,47.16
2022-10-28T06:36:20.453Z,47.03
2022-10-28T06:36:51.962Z,47.11
2022-10-28T06:37:23.409Z,47.06
2022-10-28T06:37:55.348Z,46.92
2022-10-28T06:38:27.003Z,47.49
2022-10-28T06:38:59.612Z,47.26
2022-10-28T06:39:30.999Z,47.27
2022-10-28T06:40:02.406Z,47.03
2022-10-28T06:40:33.842Z,47.18
2022-10-28T06:41:05.638Z,46.91
2022-10-28T06:41:37.025Z,47.08
2022-10-28T06:42:08.433Z,47.48
2022-10-28T06:42:39.865Z,47.22
2022-10-28T06:43:11.255Z,47.61
2022-10-28T06:43:42.639Z,47.34
2022-10-28T06:44:14.188Z,47.13
2022-10-28T06:44:45.584Z,47.52
2022-10-28T06:45:16.978Z,47.32
2022-10-28T06:45:48.374Z,47.22
2022-10-28T06:46:19.758Z,46.97